Time;durP1;ratioP1;P1;durP2;ratioP2;P2;SDS_P1;SDS_P2;PMS_P1;PMS_P2;Temp;Humidity;BMP_temperature;BMP_pressure;BME280_temperature;BME280_humidity;BME280_pressure;Samples;Min_cycle;Max_cycle;Signal;HPM_P1;HPM_P2
2023/10/07 00:01:37;;;;;;;;;;;;;;;16.29;42.81;94776.94;4962707;28;20567;-70
2023/10/07 00:04:05;;;;;;;;;;;;;;;16.33;42.86;94777.09;4956198;28;19957;-70
2023/10/07 00:06:31;;;;;;;;;;;;;;;16.28;42.85;94777.28;4959957;28;19910;-70
2023/10/07 00:08:58;;;;;;;;;;;;;;;16.35;42.50;94779.47;4954840;28;20321;-71
2023/10/07 00:11:25;;;;;;;;;;;;;;;16.30;42.63;94778.53;4955939;28;20047;-70
2023/10/07 00:13:54;;;;;;;;;;;;;;;16.37;42.34;94771.88;4954484;28;20442;-71
2023/10/07 00:16:21;;;;;;;;;;;;;;;16.33;42.74;94770.97;4953719;28;19922;-69
2023/10/07 00:18:48;;;;;;;;;;;;;;;16.30;42.70;94766.97;4958427;28;19926;-70
2023/10/07 00:21:18;;;;;;;;;;;;;;;16.26;42.81;94764.19;4958119;28;19918;-69
2023/10/07 00:23:44;;;;;;;;;;;;;;;16.25;43.12;94759.13;4959061;28;20035;-70
2023/10/07 00:26:10;;;;;;;;;;;;;;;16.22;42.83;94760.56;4955018;28;19941;-70
2023/10/07 00:28:38;;;;;;;;;;;;;;;16.18;42.85;94751.56;4957773;28;19971;-72
2023/10/07 00:31:09;;;;;;;;;;;;;;;16.20;42.48;94757.41;4957174;28;20791;-69
2023/10/07 00:33:50;;;;;;;;;;;;;;;16.13;42.96;94751.78;4957618;28;20356;-69
2023/10/07 00:36:27;;;;;;;;;;;;;;;16.14;42.96;94747.19;4959969;28;20297;-69
2023/10/07 00:38:54;;;;;;;;;;;;;;;16.10;43.49;94746.25;4957362;28;19926;-68
2023/10/07 00:41:23;;;;;;;;;;;;;;;16.12;43.22;94742.16;4947367;28;19926;-69
2023/10/07 00:43:53;;;;;;;;;;;;;;;16.10;43.24;94739.00;4958988;28;19928;-70
2023/10/07 00:46:28;;;;;;;;;;;;;;;16.08;43.08;94735.88;4959148;28;20477;-70
2023/10/07 00:48:57;;;;;;;;;;;;;;;16.09;43.03;94739.31;4955464;28;19913;-70
2023/10/07 00:51:36;;;;;;;;;;;;;;;16.07;43.14;94731.63;4948416;28;19960;-69
2023/10/07 00:56:52;;;;;;;;;;;;;;;16.07;43.11;94733.50;4959760;28;19992;-70
2023/10/07 00:59:24;;;;;;;;;;;;;;;16.04;43.11;94724.19;4956603;28;19926;-70
2023/10/07 01:01:50;;;;;;;;;;;;;;;15.99;43.18;94729.75;4954384;28;20319;-70
2023/10/07 01:04:16;;;;;;;;;;;;;;;15.96;43.29;94725.03;4955444;28;19929;-69
2023/10/07 01:06:45;;;;;;;;;;;;;;;15.94;43.37;94726.50;4958342;28;19925;-70
2023/10/07 01:09:11;;;;;;;;;;;;;;;15.96;43.30;94725.03;4957615;28;20279;-69
2023/10/07 01:11:46;;;;;;;;;;;;;;;15.99;42.88;94718.25;4958151;28;19926;-70
2023/10/07 01:14:12;;;;;;;;;;;;;;;15.95;43.02;94718.09;4954855;28;19989;-71
2023/10/07 01:16:40;;;;;;;;;;;;;;;15.92;43.16;94713.41;4955604;28;19968;-69
2023/10/07 01:22:21;;;;;;;;;;;;;;;15.85;43.32;94713.09;4954255;28;19936;-69
2023/10/07 01:24:44;;;;;;;;;;;;;;;15.87;43.26;94718.94;4957091;28;19925;-71
2023/10/07 01:29:59;;;;;;;;;;;;;;;15.78;43.58;94731.63;4955809;28;19933;-71
2023/10/07 01:32:31;;;;;;;;;;;;;;;15.66;43.95;94729.63;4954885;28;20332;-71
2023/10/07 01:35:06;;;;;;;;;;;;;;;15.66;43.75;94729.63;4972189;28;19940;-72
2023/10/07 01:37:42;;;;;;;;;;;;;;;15.64;44.03;94725.69;4959305;28;20420;-71
2023/10/07 01:40:13;;;;;;;;;;;;;;;15.65;43.99;94722.69;4955816;28;20015;-70
2023/10/07 01:42:42;;;;;;;;;;;;;;;15.65;44.03;94730.72;4955954;28;20458;-72
2023/10/07 01:45:20;;;;;;;;;;;;;;;15.61;44.04;94723.63;4955369;28;20048;-71
2023/10/07 01:47:55;;;;;;;;;;;;;;;15.57;44.08;94734.22;4955573;28;20045;-71
2023/10/07 01:50:21;;;;;;;;;;;;;;;15.49;44.21;94721.66;4957959;28;19926;-71
2023/10/07 01:52:48;;;;;;;;;;;;;;;15.49;44.16;94720.88;4952565;28;19926;-71
2023/10/07 01:55:14;;;;;;;;;;;;;;;15.40;44.35;94718.97;4956340;28;20085;-71
2023/10/07 01:57:41;;;;;;;;;;;;;;;15.40;44.32;94721.63;4955833;28;20028;-71
2023/10/07 02:00:07;;;;;;;;;;;;;;;15.39;44.57;94719.31;4956708;28;20007;-72
2023/10/07 02:02:42;;;;;;;;;;;;;;;15.37;44.50;94716.94;4953504;28;19918;-71
2023/10/07 02:05:11;;;;;;;;;;;;;;;15.34;44.21;94714.13;4955980;28;19924;-71
2023/10/07 02:07:36;;;;;;;;;;;;;;;15.30;44.62;94713.94;4959328;28;19929;-71
2023/10/07 02:10:02;;;;;;;;;;;;;;;15.27;44.39;94711.91;4955399;28;19914;-72
2023/10/07 02:12:32;;;;;;;;;;;;;;;15.19;44.41;94704.69;4958046;28;19910;-71
2023/10/07 02:14:57;;;;;;;;;;;;;;;15.13;44.73;94707.88;4957531;28;19972;-71
2023/10/07 02:17:25;;;;;;;;;;;;;;;15.10;44.74;94709.31;4956057;28;19926;-71
2023/10/07 02:19:53;;;;;;;;;;;;;;;15.07;44.83;94701.09;4957284;28;19930;-71
2023/10/07 02:22:23;;;;;;;;;;;;;;;15.07;44.94;94699.22;4958493;28;19983;-71
2023/10/07 02:25:01;;;;;;;;;;;;;;;15.04;45.05;94705.22;4960472;28;19945;-71
2023/10/07 02:27:28;;;;;;;;;;;;;;;14.96;44.97;94698.00;4956847;28;19965;-71
2023/10/07 02:29:57;;;;;;;;;;;;;;;14.96;44.92;94708.72;4957871;28;19922;-71
2023/10/07 02:32:22;;;;;;;;;;;;;;;14.90;45.12;94699.25;4957502;28;19929;-71
2023/10/07 02:34:51;;;;;;;;;;;;;;;14.82;45.23;94702.72;4958316;28;20301;-71
2023/10/07 02:37:21;;;;;;;;;;;;;;;14.80;45.22;94705.75;4957952;28;19922;-71
2023/10/07 02:39:46;;;;;;;;;;;;;;;14.79;45.26;94706.84;4960606;28;20373;-71
2023/10/07 02:42:21;;;;;;;;;;;;;;;14.70;45.25;94703.38;4957188;28;20010;-71
2023/10/07 02:47:37;;;;;;;;;;;;;;;14.65;45.40;94706.22;4958351;28;19972;-71
2023/10/07 02:50:02;;;;;;;;;;;;;;;14.62;45.59;94698.81;4957865;28;20031;-71
2023/10/07 02:52:35;;;;;;;;;;;;;;;14.59;45.42;94694.09;4957209;28;20491;-71
2023/10/07 02:57:41;;;;;;;;;;;;;;;14.52;45.61;94701.81;4965089;28;19917;-72
2023/10/07 03:00:17;;;;;;;;;;;;;;;14.52;45.74;94699.13;4957247;28;20857;-72
2023/10/07 03:02:49;;;;;;;;;;;;;;;14.50;45.60;94702.13;4957570;28;20388;-71
2023/10/07 03:05:14;;;;;;;;;;;;;;;14.38;45.84;94699.28;4956907;28;20294;-70
2023/10/07 03:07:49;;;;;;;;;;;;;;;14.40;45.93;94705.09;4957156;28;20424;-71
2023/10/07 03:10:17;;;;;;;;;;;;;;;14.35;45.98;94697.25;4957447;28;20758;-72
2023/10/07 03:12:49;;;;;;;;;;;;;;;14.39;45.94;94711.56;4948597;28;20087;-70
2023/10/07 03:15:26;;;;;;;;;;;;;;;14.39;45.81;94706.19;4955334;28;19949;-71
2023/10/07 03:17:52;;;;;;;;;;;;;;;14.29;46.08;94717.22;4957834;28;20391;-70
2023/10/07 03:28:17;;;;;;;;;;;;;;;14.25;46.24;94723.50;4961387;28;19933;-70
2023/10/07 03:30:47;;;;;;;;;;;;;;;14.17;46.14;94714.41;4953816;28;19914;-72
2023/10/07 03:33:15;;;;;;;;;;;;;;;14.17;46.23;94720.53;4950946;28;19922;-72
2023/10/07 03:38:25;;;;;;;;;;;;;;;14.11;46.31;94721.78;4961941;28;19918;-71
2023/10/07 03:40:54;;;;;;;;;;;;;;;14.09;46.26;94712.47;4955005;28;19921;-71
2023/10/07 03:43:19;;;;;;;;;;;;;;;14.03;46.42;94716.41;4956072;28;19928;-71
2023/10/07 03:45:45;;;;;;;;;;;;;;;14.02;46.39;94718.31;4953452;28;19913;-72
2023/10/07 03:48:23;;;;;;;;;;;;;;;14.00;46.49;94714.34;4960291;28;20009;-72
2023/10/07 03:50:49;;;;;;;;;;;;;;;13.99;46.37;94710.09;4956985;28;20361;-70
2023/10/07 03:53:15;;;;;;;;;;;;;;;13.91;46.26;94711.66;4956705;28;19933;-71
2023/10/07 03:55:40;;;;;;;;;;;;;;;13.88;46.40;94711.50;4957083;28;20400;-70
2023/10/07 03:58:06;;;;;;;;;;;;;;;13.86;46.57;94719.84;4960243;28;19922;-71
2023/10/07 04:00:35;;;;;;;;;;;;;;;13.86;46.61;94722.50;4957570;28;19914;-69
2023/10/07 04:03:07;;;;;;;;;;;;;;;13.82;46.64;94724.25;4960269;28;19918;-68
2023/10/07 04:05:35;;;;;;;;;;;;;;;13.79;46.75;94718.72;4955708;28;20364;-69
2023/10/07 04:08:02;;;;;;;;;;;;;;;13.78;46.72;94730.53;4956041;28;19978;-69
2023/10/07 04:10:45;;;;;;;;;;;;;;;13.70;46.81;94729.38;4956465;28;19927;-70
2023/10/07 04:13:21;;;;;;;;;;;;;;;13.70;46.88;94735.53;4957960;28;19922;-69
2023/10/07 04:15:51;;;;;;;;;;;;;;;13.64;46.83;94734.06;4961790;28;19917;-70
2023/10/07 04:18:17;;;;;;;;;;;;;;;13.65;46.66;94735.66;4955655;28;20274;-69
2023/10/07 04:20:51;;;;;;;;;;;;;;;13.68;46.77;94735.06;4957462;28;19918;-69
2023/10/07 04:23:24;;;;;;;;;;;;;;;13.67;47.07;94725.47;4954918;28;20184;-69
2023/10/07 04:25:49;;;;;;;;;;;;;;;13.67;47.08;94732.69;4960470;28;20060;-70
2023/10/07 04:28:14;;;;;;;;;;;;;;;13.63;47.10;94731.72;4957784;28;19922;-69
2023/10/07 04:30:46;;;;;;;;;;;;;;;13.63;47.18;94718.38;4955625;28;19918;-69
2023/10/07 04:33:11;;;;;;;;;;;;;;;13.61;47.05;94718.66;4958920;28;19921;-69
2023/10/07 04:35:38;;;;;;;;;;;;;;;13.61;46.84;94713.31;4956330;28;19918;-69
2023/10/07 04:38:38;;;;;;;;;;;;;;;13.59;46.90;94715.50;4949201;28;19996;-69
2023/10/07 04:46:23;;;;;;;;;;;;;;;13.47;46.97;94717.97;4963005;28;20402;-69
2023/10/07 04:49:12;;;;;;;;;;;;;;;13.49;47.13;94715.78;4953583;28;19923;-70
2023/10/07 04:54:10;;;;;;;;;;;;;;;13.49;47.18;94718.44;4954718;28;19961;-70
2023/10/07 04:56:36;;;;;;;;;;;;;;;13.49;47.12;94726.47;4953306;28;19918;-70
2023/10/07 04:59:09;;;;;;;;;;;;;;;13.43;47.25;94725.03;4953707;28;19922;-69
2023/10/07 05:01:35;;;;;;;;;;;;;;;13.42;47.21;94728.00;4954281;28;19925;-70
2023/10/07 05:04:05;;;;;;;;;;;;;;;13.41;47.28;94729.88;4954851;28;19918;-69
2023/10/07 05:06:35;;;;;;;;;;;;;;;13.35;47.64;94725.75;4957589;28;19967;-70
2023/10/07 05:09:10;;;;;;;;;;;;;;;13.33;47.70;94731.44;4954098;28;19921;-71
2023/10/07 05:11:37;;;;;;;;;;;;;;;13.36;47.99;94732.69;4957786;28;19922;-70
2023/10/07 05:14:03;;;;;;;;;;;;;;;13.45;47.87;94736.19;4953547;28;20038;-69
2023/10/07 05:16:28;;;;;;;;;;;;;;;13.48;47.81;94735.56;4957227;28;20396;-70
2023/10/07 05:18:53;;;;;;;;;;;;;;;13.54;47.92;94739.69;4953329;28;19918;-70
2023/10/07 05:21:21;;;;;;;;;;;;;;;13.58;47.99;94743.31;4954790;28;19980;-70
2023/10/07 05:23:47;;;;;;;;;;;;;;;13.59;48.03;94746.81;4956665;28;20417;-70
2023/10/07 05:26:17;;;;;;;;;;;;;;;13.65;47.89;94748.22;4955262;28;20278;-71
2023/10/07 05:28:44;;;;;;;;;;;;;;;13.69;47.73;94752.66;4957477;28;19961;-70
2023/10/07 05:31:11;;;;;;;;;;;;;;;13.69;47.95;94762.59;4953768;28;20077;-71
2023/10/07 05:33:37;;;;;;;;;;;;;;;13.71;48.24;94758.50;4957814;28;19948;-70
2023/10/07 05:36:16;;;;;;;;;;;;;;;13.74;48.14;94760.53;4951046;28;19918;-71
2023/10/07 05:38:44;;;;;;;;;;;;;;;13.83;48.14;94757.13;4960850;28;19930;-71
2023/10/07 05:41:12;;;;;;;;;;;;;;;13.89;48.26;94758.53;4956779;28;20391;-70
2023/10/07 05:43:44;;;;;;;;;;;;;;;13.91;48.03;94759.81;4957323;28;19917;-70
2023/10/07 05:46:12;;;;;;;;;;;;;;;13.97;48.39;94760.44;4961555;28;19918;-70
2023/10/07 05:48:38;;;;;;;;;;;;;;;14.01;48.57;94772.88;4957888;28;20278;-69
2023/10/07 05:51:07;;;;;;;;;;;;;;;13.99;48.43;94771.63;4956466;28;19945;-70
2023/10/07 05:53:39;;;;;;;;;;;;;;;14.12;48.29;94774.19;4960856;28;20377;-71
2023/10/07 05:56:07;;;;;;;;;;;;;;;14.15;48.29;94775.44;4958338;28;19929;-70
2023/10/07 05:58:36;;;;;;;;;;;;;;;14.19;48.07;94771.81;4960367;28;19997;-70
2023/10/07 06:01:05;;;;;;;;;;;;;;;14.26;48.01;94776.72;4957750;28;19960;-71
2023/10/07 06:03:30;;;;;;;;;;;;;;;14.35;47.18;94774.06;4958693;28;19928;-71
2023/10/07 06:05:59;;;;;;;;;;;;;;;14.33;47.22;94777.03;4957448;28;19918;-71
2023/10/07 06:08:27;;;;;;;;;;;;;;;14.39;47.20;94770.44;4950038;28;20373;-69
2023/10/07 06:10:56;;;;;;;;;;;;;;;14.40;47.48;94766.66;4955606;28;19984;-70
2023/10/07 06:13:22;;;;;;;;;;;;;;;14.50;47.63;94771.72;4961814;28;19925;-70
2023/10/07 06:15:47;;;;;;;;;;;;;;;14.58;46.61;94773.63;4956681;28;19982;-70
2023/10/07 06:18:12;;;;;;;;;;;;;;;14.55;47.06;94766.22;4959689;28;19926;-70
2023/10/07 06:20:37;;;;;;;;;;;;;;;14.59;47.14;94769.84;4955954;28;20429;-70
2023/10/07 06:23:15;;;;;;;;;;;;;;;14.61;47.32;94772.22;4956273;28;19999;-70
2023/10/07 06:25:42;;;;;;;;;;;;;;;14.72;47.27;94759.28;4958499;28;19922;-70
2023/10/07 06:28:10;;;;;;;;;;;;;;;14.74;47.54;94775.84;4958279;28;19917;-70
2023/10/07 06:30:38;;;;;;;;;;;;;;;14.84;46.75;94762.13;4962008;28;19987;-70
2023/10/07 06:33:04;;;;;;;;;;;;;;;14.85;47.17;94764.50;4957250;28;19982;-69
2023/10/07 06:35:32;;;;;;;;;;;;;;;14.82;47.45;94773.16;4956884;28;20503;-72
2023/10/07 06:37:57;;;;;;;;;;;;;;;14.83;47.52;94774.72;4956473;28;20441;-71
2023/10/07 06:40:29;;;;;;;;;;;;;;;14.84;47.88;94783.56;4962028;28;19980;-72
2023/10/07 06:43:01;;;;;;;;;;;;;;;14.97;46.17;94769.19;4959408;28;20009;-68
2023/10/07 06:45:35;;;;;;;;;;;;;;;14.76;47.99;94777.09;4956942;28;20218;-71
2023/10/07 06:48:02;;;;;;;;;;;;;;;14.85;47.70;94775.22;4952772;28;19925;-71
2023/10/07 06:50:29;;;;;;;;;;;;;;;15.06;46.76;94783.34;4956230;28;20573;-71
2023/10/07 06:52:57;;;;;;;;;;;;;;;14.99;47.24;94783.88;4957929;28;19919;-70
2023/10/07 06:55:23;;;;;;;;;;;;;;;15.16;45.84;94782.25;4956622;28;20004;-71
2023/10/07 06:57:50;;;;;;;;;;;;;;;15.15;46.40;94781.47;4955710;28;20034;-71
2023/10/07 07:00:37;;;;;;;;;;;;;;;15.20;46.33;94778.63;4959666;28;19918;-71
2023/10/07 07:03:09;;;;;;;;;;;;;;;15.28;45.24;94772.47;4957776;28;20152;-71
2023/10/07 07:05:35;;;;;;;;;;;;;;;15.32;45.83;94770.72;4958894;28;19933;-70
2023/10/07 07:08:03;;;;;;;;;;;;;;;15.39;45.45;94771.03;4956394;28;19961;-70
2023/10/07 07:10:30;;;;;;;;;;;;;;;15.43;45.05;94766.59;4955163;28;20251;-71
2023/10/07 07:13:04;;;;;;;;;;;;;;;15.37;44.97;94761.72;4957844;28;20356;-70
2023/10/07 07:15:36;;;;;;;;;;;;;;;15.43;45.52;94769.28;4955298;28;19964;-71
2023/10/07 07:20:48;;;;;;;;;;;;;;;15.64;44.29;94765.91;4958583;28;20382;-70
2023/10/07 07:23:20;;;;;;;;;;;;;;;15.62;43.99;94762.75;4955283;28;20614;-71
2023/10/07 07:28:32;;;;;;;;;;;;;;;15.59;44.27;94766.88;4961955;28;19922;-68
2023/10/07 07:30:57;;;;;;;;;;;;;;;15.61;44.67;94771.91;4955384;28;19940;-69
2023/10/07 07:33:28;;;;;;;;;;;;;;;15.60;45.13;94768.44;4959714;28;20385;-72
2023/10/07 07:35:57;;;;;;;;;;;;;;;15.59;45.19;94768.78;4955705;28;19918;-69
2023/10/07 07:41:04;;;;;;;;;;;;;;;15.75;44.67;94769.78;4948847;28;19927;-68
2023/10/07 07:43:30;;;;;;;;;;;;;;;15.83;44.87;94763.63;4952114;28;19952;-69
2023/10/07 07:46:12;;;;;;;;;;;;;;;15.90;44.72;94763.91;4949666;28;19913;-69
2023/10/07 07:48:38;;;;;;;;;;;;;;;15.97;43.73;94756.13;4941928;28;19914;-70
2023/10/07 07:51:03;;;;;;;;;;;;;;;16.00;44.03;94755.47;4951306;28;19926;-69
2023/10/07 07:53:30;;;;;;;;;;;;;;;15.99;44.22;94750.47;4953539;28;19937;-70
2023/10/07 07:55:58;;;;;;;;;;;;;;;15.99;44.23;94751.22;4951319;28;19922;-70
2023/10/07 07:58:24;;;;;;;;;;;;;;;16.06;44.38;94750.72;4952593;28;20007;-70
2023/10/07 08:00:58;;;;;;;;;;;;;;;16.04;44.73;94748.34;4949594;28;19945;-70
2023/10/07 08:03:24;;;;;;;;;;;;;;;16.14;44.73;94739.13;4954508;28;20372;-70
2023/10/07 08:05:49;;;;;;;;;;;;;;;16.15;44.85;94743.41;4954859;28;19918;-69
2023/10/07 08:08:29;;;;;;;;;;;;;;;16.21;44.43;94748.25;4949606;28;19961;-70
2023/10/07 08:10:55;;;;;;;;;;;;;;;16.27;44.09;94752.34;4945559;28;19981;-69
2023/10/07 08:13:29;;;;;;;;;;;;;;;16.33;44.17;94755.63;4948576;28;20310;-70
2023/10/07 08:15:55;;;;;;;;;;;;;;;16.36;44.08;94756.88;4950945;28;19954;-69
2023/10/07 08:18:28;;;;;;;;;;;;;;;16.41;43.56;94745.94;4951959;28;20024;-71
2023/10/07 08:21:06;;;;;;;;;;;;;;;16.49;43.91;94759.31;4950025;28;19930;-70
2023/10/07 08:23:36;;;;;;;;;;;;;;;16.44;43.25;94753.34;4950458;28;19944;-71
2023/10/07 08:26:10;;;;;;;;;;;;;;;16.44;44.13;94750.66;4948147;28;19972;-70
2023/10/07 08:28:42;;;;;;;;;;;;;;;16.44;44.23;94750.66;4949586;28;20435;-69
2023/10/07 08:31:17;;;;;;;;;;;;;;;16.14;43.83;94745.28;4939905;28;20017;-69
2023/10/07 08:33:47;;;;;;;;;;;;;;;15.97;43.93;94748.09;4952282;28;20435;-69
2023/10/07 08:36:13;;;;;;;;;;;;;;;16.16;44.60;94735.03;4953925;28;20293;-73
2023/10/07 08:38:43;;;;;;;;;;;;;;;16.27;44.33;94730.06;4943845;28;20438;-70
2023/10/07 08:41:09;;;;;;;;;;;;;;;16.38;44.38;94725.13;4944442;28;19926;-71
2023/10/07 08:43:43;;;;;;;;;;;;;;;16.42;44.64;94731.41;4948578;28;19942;-70
2023/10/07 08:46:11;;;;;;;;;;;;;;;16.48;43.90;94730.09;4948938;28;19918;-70
2023/10/07 08:48:42;;;;;;;;;;;;;;;16.53;43.55;94721.84;4950613;28;20210;-70
2023/10/07 08:51:14;;;;;;;;;;;;;;;16.58;42.18;94718.94;4944023;28;19926;-70
2023/10/07 08:53:40;;;;;;;;;;;;;;;16.60;42.88;94712.16;5015883;28;19959;-70
2023/10/07 08:56:12;;;;;;;;;;;;;;;16.72;42.12;94714.88;4944125;28;19928;-70
2023/10/07 08:58:40;;;;;;;;;;;;;;;16.74;42.56;94706.50;4948330;28;19926;-70
2023/10/07 09:01:07;;;;;;;;;;;;;;;16.73;42.58;94712.97;4952346;28;20386;-70
2023/10/07 09:03:39;;;;;;;;;;;;;;;16.68;43.00;94713.19;4952434;28;19913;-69
2023/10/07 09:06:08;;;;;;;;;;;;;;;16.77;42.28;94706.63;4950131;28;20409;-71
2023/10/07 09:08:34;;;;;;;;;;;;;;;16.84;42.90;94707.97;4952147;28;20646;-70
2023/10/07 09:11:00;;;;;;;;;;;;;;;16.86;42.91;94708.44;4954241;28;19925;-70
2023/10/07 09:13:29;;;;;;;;;;;;;;;16.93;42.84;94704.09;4955042;28;19920;-70
2023/10/07 09:15:59;;;;;;;;;;;;;;;17.01;42.33;94703.22;4953167;28;20096;-70
2023/10/07 09:18:38;;;;;;;;;;;;;;;17.07;42.36;94699.22;4955590;28;19922;-69
2023/10/07 09:21:09;;;;;;;;;;;;;;;16.99;42.87;94699.31;4957240;28;19926;-71
2023/10/07 09:23:43;;;;;;;;;;;;;;;17.12;42.75;94701.69;4956746;28;19918;-71
2023/10/07 09:26:22;;;;;;;;;;;;;;;17.23;41.79;94706.66;4957374;28;19926;-70
2023/10/07 09:28:58;;;;;;;;;;;;;;;17.38;41.50;94703.34;4957106;28;20411;-70
2023/10/07 09:31:26;;;;;;;;;;;;;;;17.44;41.66;94705.47;4955807;28;19923;-71
2023/10/07 09:33:51;;;;;;;;;;;;;;;17.34;41.64;94702.44;4954534;28;20453;-71
2023/10/07 09:36:33;;;;;;;;;;;;;;;17.50;41.35;94695.28;4955394;28;19918;-70
2023/10/07 09:39:16;;;;;;;;;;;;;;;17.49;41.25;94701.78;4953299;28;19987;-70
2023/10/07 09:41:44;;;;;;;;;;;;;;;17.59;40.92;94698.66;4955815;28;20443;-71
2023/10/07 09:44:26;;;;;;;;;;;;;;;17.68;41.29;94704.72;4957492;28;20075;-69
2023/10/07 09:46:52;;;;;;;;;;;;;;;17.74;41.44;94700.69;4940179;28;19975;-69
2023/10/07 09:49:19;;;;;;;;;;;;;;;17.76;40.21;94698.41;4954682;28;19922;-69
2023/10/07 09:51:47;;;;;;;;;;;;;;;17.78;40.38;94688.13;4959200;28;20368;-69
2023/10/07 09:54:27;;;;;;;;;;;;;;;17.89;40.13;94683.84;4954759;28;19968;-69
2023/10/07 09:57:06;;;;;;;;;;;;;;;17.82;40.24;94678.25;4953831;28;19976;-68
2023/10/07 09:59:53;;;;;;;;;;;;;;;17.98;40.71;94676.47;4956999;28;19922;-70
2023/10/07 10:02:43;;;;;;;;;;;;;;;18.12;40.07;94672.63;4955244;28;19922;-69
2023/10/07 10:05:40;;;;;;;;;;;;;;;18.08;39.69;94672.53;4947368;28;20064;-69
2023/10/07 10:08:35;;;;;;;;;;;;;;;18.09;39.68;94665.25;4938863;28;19918;-69
2023/10/07 10:11:08;;;;;;;;;;;;;;;18.20;40.14;94666.31;4945291;28;20299;-69
2023/10/07 10:16:15;;;;;;;;;;;;;;;18.20;40.20;94652.88;4961891;28;20269;-71
2023/10/07 10:18:44;;;;;;;;;;;;;;;18.24;40.27;94654.53;4956978;28;19926;-71
2023/10/07 10:21:12;;;;;;;;;;;;;;;18.19;39.82;94648.59;4953434;28;19930;-70
2023/10/07 10:23:41;;;;;;;;;;;;;;;18.25;39.95;94631.09;4957669;28;19926;-70
2023/10/07 10:26:20;;;;;;;;;;;;;;;18.34;40.25;94623.66;4942821;28;19924;-70
2023/10/07 10:29:04;;;;;;;;;;;;;;;18.43;40.27;94618.91;4957438;28;19922;-70
2023/10/07 10:31:34;;;;;;;;;;;;;;;18.51;38.44;94612.59;4958154;28;20044;-70
2023/10/07 10:34:04;;;;;;;;;;;;;;;18.52;39.10;94605.31;4957382;28;20048;-70
2023/10/07 10:36:31;;;;;;;;;;;;;;;18.56;39.21;94596.19;4958582;28;19907;-70
2023/10/07 10:39:00;;;;;;;;;;;;;;;18.53;39.35;94596.84;4954484;28;20342;-70
2023/10/07 10:41:29;;;;;;;;;;;;;;;18.66;39.58;94587.59;4958559;28;19929;-71
2023/10/07 10:44:10;;;;;;;;;;;;;;;18.76;39.14;94586.34;4958564;28;20445;-70
2023/10/07 10:46:46;;;;;;;;;;;;;;;18.86;38.90;94575.84;4960936;28;20392;-71
2023/10/07 10:49:18;;;;;;;;;;;;;;;18.96;39.45;94579.16;4970537;28;20395;-73
2023/10/07 10:51:48;;;;;;;;;;;;;;;18.91;38.18;94571.31;4944844;28;19926;-72
2023/10/07 10:54:17;;;;;;;;;;;;;;;18.89;38.43;94567.06;4954924;28;20332;-72
2023/10/07 10:56:49;;;;;;;;;;;;;;;19.07;38.23;94561.31;4955160;28;20020;-71
2023/10/07 10:59:16;;;;;;;;;;;;;;;19.10;38.47;94556.00;4960365;28;19921;-72
2023/10/07 11:01:44;;;;;;;;;;;;;;;19.14;37.98;94558.78;4954850;28;19973;-71
2023/10/07 11:04:12;;;;;;;;;;;;;;;19.16;37.62;94559.22;4962772;28;19925;-71
2023/10/07 11:06:37;;;;;;;;;;;;;;;19.13;38.11;94543.75;4960471;28;19918;-73
2023/10/07 11:09:04;;;;;;;;;;;;;;;19.17;37.86;94545.38;4958084;28;19921;-71
2023/10/07 11:11:29;;;;;;;;;;;;;;;19.24;37.78;94540.16;4959321;28;20374;-71
2023/10/07 11:13:56;;;;;;;;;;;;;;;19.34;38.34;94528.06;4957864;28;19918;-70
2023/10/07 11:16:22;;;;;;;;;;;;;;;19.35;37.26;94532.34;4960645;28;19961;-72
2023/10/07 11:18:49;;;;;;;;;;;;;;;19.38;37.64;94531.63;4958133;28;20103;-71
2023/10/07 11:21:19;;;;;;;;;;;;;;;19.40;38.25;94518.56;4961212;28;20000;-71
2023/10/07 11:23:49;;;;;;;;;;;;;;;19.51;37.53;94513.41;4953327;28;19929;-72
2023/10/07 11:26:17;;;;;;;;;;;;;;;19.59;36.71;94512.47;4950115;28;20377;-70
2023/10/07 11:28:43;;;;;;;;;;;;;;;19.64;37.49;94509.47;4951706;28;19922;-70
2023/10/07 11:31:08;;;;;;;;;;;;;;;19.62;36.07;94511.75;4953853;28;19929;-71
2023/10/07 11:33:34;;;;;;;;;;;;;;;19.61;37.00;94504.78;4951142;28;20404;-72
2023/10/07 11:36:03;;;;;;;;;;;;;;;19.71;36.87;94506.91;4952783;28;19949;-71
2023/10/07 11:38:29;;;;;;;;;;;;;;;19.74;36.76;94498.91;4951484;28;19925;-72
2023/10/07 11:40:55;;;;;;;;;;;;;;;19.78;38.00;94492.81;4949686;28;19933;-69
2023/10/07 11:43:21;;;;;;;;;;;;;;;19.82;38.17;94485.56;4949756;28;20305;-71
2023/10/07 11:45:47;;;;;;;;;;;;;;;19.89;37.08;94483.00;4948165;28;19918;-72
2023/10/07 11:48:12;;;;;;;;;;;;;;;19.95;36.32;94479.66;4949204;28;19914;-70
2023/10/07 11:50:38;;;;;;;;;;;;;;;19.94;36.48;94485.41;4947718;28;19929;-71
2023/10/07 11:53:04;;;;;;;;;;;;;;;20.02;36.99;94476.31;4948068;28;20653;-72
2023/10/07 11:55:33;;;;;;;;;;;;;;;19.96;36.63;94477.72;4950842;28;19918;-71
2023/10/07 11:57:58;;;;;;;;;;;;;;;20.10;36.07;94478.00;4947057;28;20680;-71
2023/10/07 12:00:28;;;;;;;;;;;;;;;20.30;36.43;94471.47;4950715;28;19949;-71
2023/10/07 12:02:57;;;;;;;;;;;;;;;20.16;35.51;94446.88;4949285;28;20295;-71
2023/10/07 12:05:27;;;;;;;;;;;;;;;20.33;34.48;94464.59;4948607;28;19933;-70
2023/10/07 12:07:54;;;;;;;;;;;;;;;20.15;35.00;94470.41;4950460;28;19918;-71
2023/10/07 12:10:22;;;;;;;;;;;;;;;20.09;34.54;94465.66;4949461;28;19922;-71
2023/10/07 12:12:49;;;;;;;;;;;;;;;20.16;34.43;94463.91;4941197;28;19923;-72
2023/10/07 12:15:15;;;;;;;;;;;;;;;20.26;34.15;94459.81;4947951;28;19991;-70
2023/10/07 12:17:42;;;;;;;;;;;;;;;20.35;34.10;94457.66;4946702;28;19979;-71
2023/10/07 12:20:12;;;;;;;;;;;;;;;20.46;33.98;94450.53;4960528;28;19937;-70
2023/10/07 12:22:42;;;;;;;;;;;;;;;20.53;34.26;94447.94;4949405;28;19922;-72
2023/10/07 12:25:07;;;;;;;;;;;;;;;20.62;35.33;94444.22;4947337;28;19933;-72
2023/10/07 12:27:32;;;;;;;;;;;;;;;20.69;35.66;94434.31;4947349;28;19914;-72
2023/10/07 12:29:58;;;;;;;;;;;;;;;20.73;35.07;94437.84;4949429;28;20604;-70
2023/10/07 12:32:24;;;;;;;;;;;;;;;20.79;33.90;94430.22;4948874;28;20279;-70
2023/10/07 12:34:49;;;;;;;;;;;;;;;20.89;33.92;94432.34;4949199;28;20321;-72
2023/10/07 12:37:15;;;;;;;;;;;;;;;20.92;32.10;94431.63;4947000;28;19918;-72
2023/10/07 12:39:40;;;;;;;;;;;;;;;20.96;32.20;94427.81;4946986;28;19933;-72
2023/10/07 12:42:07;;;;;;;;;;;;;;;21.05;31.57;94427.56;4950288;28;20345;-70
2023/10/07 12:44:32;;;;;;;;;;;;;;;21.14;31.62;94425.38;4947445;28;19918;-71
2023/10/07 12:46:57;;;;;;;;;;;;;;;21.09;31.33;94419.50;4945834;28;19987;-70
2023/10/07 12:49:23;;;;;;;;;;;;;;;21.20;33.39;94423.91;4946329;28;19922;-71
2023/10/07 12:51:48;;;;;;;;;;;;;;;21.25;31.38;94420.09;4941286;28;19917;-70
2023/10/07 12:54:13;;;;;;;;;;;;;;;21.26;30.75;94424.38;4946780;28;19914;-70
2023/10/07 12:56:42;;;;;;;;;;;;;;;21.36;32.24;94405.56;4945643;28;20018;-70
2023/10/07 12:59:23;;;;;;;;;;;;;;;21.44;31.58;94409.94;4947816;28;20356;-72
2023/10/07 13:01:52;;;;;;;;;;;;;;;21.41;30.38;94404.50;4948475;28;19933;-73
2023/10/07 13:04:19;;;;;;;;;;;;;;;21.50;30.90;94399.56;4947903;28;19957;-71
2023/10/07 13:06:46;;;;;;;;;;;;;;;21.52;30.97;94396.47;4946105;28;19975;-71
2023/10/07 13:09:18;;;;;;;;;;;;;;;21.57;30.38;94396.19;4948356;28;19925;-70
2023/10/07 13:11:49;;;;;;;;;;;;;;;21.45;30.48;94367.44;4946137;28;20460;-70
2023/10/07 13:14:14;;;;;;;;;;;;;;;21.76;27.19;94388.69;4950982;28;20045;-71
2023/10/07 13:16:45;;;;;;;;;;;;;;;21.79;27.10;94390.66;4946393;28;19933;-73
2023/10/07 13:19:11;;;;;;;;;;;;;;;21.81;26.50;94391.06;4945836;28;20635;-70
2023/10/07 13:21:37;;;;;;;;;;;;;;;21.87;26.61;94395.00;4947811;28;19917;-72
2023/10/07 13:24:07;;;;;;;;;;;;;;;21.92;26.47;94396.59;4941876;28;19924;-71
2023/10/07 13:26:49;;;;;;;;;;;;;;;22.03;26.17;94385.88;4925253;28;20368;-71
2023/10/07 13:29:15;;;;;;;;;;;;;;;22.04;26.53;94382.81;4920005;28;20035;-70
2023/10/07 13:31:40;;;;;;;;;;;;;;;22.04;26.53;94382.81;4918748;28;20009;-70
2023/10/07 13:34:07;;;;;;;;;;;;;;;22.07;26.42;94379.34;4918930;28;19926;-70
2023/10/07 13:36:37;;;;;;;;;;;;;;;22.08;25.85;94377.41;4924745;28;20666;-71
2023/10/07 13:39:04;;;;;;;;;;;;;;;22.07;25.83;94382.06;4911425;28;20568;-71
2023/10/07 13:41:29;;;;;;;;;;;;;;;22.04;26.48;94371.97;4924569;28;19923;-71
2023/10/07 13:43:54;;;;;;;;;;;;;;;22.01;26.15;94378.13;4924863;28;20329;-71